Time;durP1;ratioP1;P1;durP2;ratioP2;P2;SDS_P1;SDS_P2;PMS_P1;PMS_P2;Temp;Humidity;BMP_temperature;BMP_pressure;BME280_temperature;BME280_humidity;BME280_pressure;Samples;Min_cycle;Max_cycle;Signal;HPM_P1;HPM_P2
2021/04/10 00:02:11;;;;;;;15.97;9.73;;;;;;;2.28;57.88;100546.78;1771140;79;22326;-56
2021/04/10 00:04:40;;;;;;;19.48;10.32;;;;;;;2.29;57.80;100551.22;1773519;79;21209;-56
2021/04/10 00:07:08;;;;;;;20.37;10.77;;;;;;;2.30;57.74;100542.33;1776348;79;21610;-56
2021/04/10 00:09:35;;;;;;;20.73;10.33;;;;;;;2.31;57.62;100535.24;1773813;79;21309;-56
2021/04/10 00:12:03;;;;;;;18.07;11.30;;;;;;;2.31;57.61;100536.13;1776076;79;21215;-56
2021/04/10 00:14:30;;;;;;;19.27;10.77;;;;;;;2.30;57.57;100536.16;1774502;79;22294;-56
2021/04/10 00:16:59;;;;;;;19.97;10.93;;;;;;;2.29;57.64;100537.94;1776263;79;21805;-56
2021/04/10 00:19:27;;;;;;;18.90;9.50;;;;;;;2.27;57.63;100533.06;1771453;79;21103;-56
2021/04/10 00:21:54;;;;;;;18.90;10.83;;;;;;;2.25;57.67;100531.73;1776189;79;21091;-55
2021/04/10 00:24:21;;;;;;;18.97;10.53;;;;;;;2.24;57.74;100531.28;1772953;79;21105;-56
2021/04/10 00:26:48;;;;;;;20.27;12.43;;;;;;;2.23;57.78;100537.48;1773038;79;22355;-55
2021/04/10 00:29:16;;;;;;;20.70;11.30;;;;;;;2.23;57.80;100536.59;1773820;79;21143;-55
2021/04/10 00:31:45;;;;;;;19.20;11.20;;;;;;;2.22;57.72;100541.46;1769061;79;21933;-55
2021/04/10 00:34:12;;;;;;;19.07;10.10;;;;;;;2.21;57.78;100538.39;1762908;80;21194;-55
2021/04/10 00:36:41;;;;;;;16.53;11.90;;;;;;;2.19;57.83;100538.39;1762158;80;21203;-55
2021/04/10 00:39:08;;;;;;;18.13;9.77;;;;;;;2.18;57.84;100541.05;1761386;80;22311;-55
2021/04/10 00:41:36;;;;;;;15.90;9.97;;;;;;;2.16;58.08;100536.17;1761722;80;21219;-55
2021/04/10 00:44:05;;;;;;;16.90;9.50;;;;;;;2.13;58.15;100546.79;1759616;80;21176;-55
2021/04/10 00:46:33;;;;;;;15.33;9.70;;;;;;;2.08;58.27;100541.94;1759357;80;21117;-55
2021/04/10 00:49:01;;;;;;;16.80;9.63;;;;;;;2.01;58.51;100535.76;1761543;80;21181;-55
2021/04/10 00:51:29;;;;;;;15.23;8.73;;;;;;;1.97;58.86;100545.04;1696167;82;21238;-55
2021/04/10 00:53:57;;;;;;;13.03;8.50;;;;;;;1.90;59.08;100539.75;1737339;80;21441;-55
2021/04/10 00:56:25;;;;;;;16.33;9.43;;;;;;;1.88;59.24;100541.95;1758878;80;21177;-54
2021/04/10 00:58:52;;;;;;;19.33;10.53;;;;;;;1.85;59.25;100545.95;1757808;80;21188;-55
2021/04/10 01:01:20;;;;;;;14.77;8.13;;;;;;;1.83;59.52;100541.08;1758901;80;21223;-55
2021/04/10 01:03:47;;;;;;;13.23;7.13;;;;;;;1.80;59.68;100545.94;1761283;80;21394;-55
2021/04/10 01:06:14;;;;;;;12.30;8.10;;;;;;;1.79;59.70;100539.30;1763209;80;21171;-54
2021/04/10 01:08:42;;;;;;;16.03;7.73;;;;;;;1.77;59.71;100543.30;1756471;80;21180;-54
2021/04/10 01:11:36;;;;;;;18.60;7.63;;;;;;;1.77;59.79;100546.41;1759256;80;21223;-55
2021/04/10 01:14:30;;;;;;;12.43;7.58;;;;;;;1.77;59.92;100549.05;1758693;80;21164;-55
2021/04/10 01:17:00;;;;;;;9.17;6.53;;;;;;;1.77;59.93;100549.94;1764220;80;22422;-54
2021/04/10 01:20:01;;;;;;;9.90;6.73;;;;;;;1.78;59.78;100541.54;1721507;82;21666;-54
2021/04/10 01:23:14;;;;;;;13.50;8.83;;;;;;;1.78;59.49;100542.87;1725098;82;21650;-54
2021/04/10 01:26:02;;;;;;;12.47;6.47;;;;;;;1.80;59.29;100549.03;1760692;80;21580;-54
2021/04/10 01:28:51;;;;;;;11.70;7.13;;;;;;;1.81;59.15;100551.70;1761190;80;21195;-54
2021/04/10 01:31:24;;;;;;;12.20;7.13;;;;;;;1.83;58.99;100544.63;1762041;80;21487;-54
2021/04/10 01:33:54;;;;;;;13.90;7.50;;;;;;;1.85;58.94;100549.94;1768218;80;21198;-54
2021/04/10 01:36:26;;;;;;;13.37;7.53;;;;;;;1.85;58.80;100548.17;1766603;80;21203;-54
2021/04/10 01:38:54;;;;;;;12.87;7.20;;;;;;;1.87;58.67;100544.19;1737477;80;21635;-54
2021/04/10 01:41:22;;;;;;;17.57;6.57;;;;;;;1.90;58.55;100549.48;1697632;82;21274;-54
2021/04/10 01:43:51;;;;;;;9.97;6.50;;;;;;;1.92;58.48;100542.84;1767827;80;21210;-54
2021/04/10 01:46:18;;;;;;;9.90;6.57;;;;;;;1.93;58.42;100546.83;1711165;80;21226;-54
2021/04/10 01:48:46;;;;;;;14.27;8.00;;;;;;;1.95;58.35;100542.41;1739323;80;21120;-54
2021/04/10 01:51:14;;;;;;;9.93;6.07;;;;;;;1.97;58.31;100548.58;1738957;80;21180;-54
2021/04/10 01:53:42;;;;;;;14.73;6.93;;;;;;;1.99;58.30;100544.61;1737191;80;21195;-54
2021/04/10 01:56:10;;;;;;;16.00;6.80;;;;;;;2.01;58.28;100549.48;1771699;79;21203;-54
2021/04/10 01:58:41;;;;;;;12.13;7.57;;;;;;;2.02;58.23;100553.47;1766998;80;21215;-54
2021/04/10 02:01:11;;;;;;;12.83;7.50;;;;;;;2.03;58.12;100549.93;1764564;80;21726;-55
2021/04/10 02:03:45;;;;;;;9.70;6.57;;;;;;;2.02;58.03;100553.91;1750867;80;21423;-54
2021/04/10 02:06:14;;;;;;;11.63;6.42;;;;;;;2.03;57.94;100552.58;1768044;80;21172;-56
2021/04/10 02:08:44;;;;;;;10.10;6.57;;;;;;;2.04;57.89;100553.47;1765625;80;21748;-54
2021/04/10 02:11:20;;;;;;;9.93;5.53;;;;;;;2.09;57.83;100547.26;1821367;75;26906;-55
2021/04/10 02:13:57;;;;;;;12.10;6.57;;;;;;;2.05;57.69;100552.11;1793344;77;21498;-54
2021/04/10 02:16:29;;;;;;;10.27;6.53;;;;;;;2.06;57.63;100550.34;1793395;77;21404;-56
2021/04/10 02:19:00;;;;;;;10.03;6.50;;;;;;;2.08;57.59;100553.89;1789908;77;21191;-56
2021/04/10 02:21:27;;;;;;;10.07;5.80;;;;;;;2.10;57.48;100553.45;1789963;77;21518;-55
2021/04/10 02:23:57;;;;;;;10.90;5.87;;;;;;;2.10;57.43;100555.67;1794336;77;20969;-55
2021/04/10 02:26:27;;;;;;;9.33;6.03;;;;;;;2.12;57.36;100547.70;1789079;77;21143;-56
2021/04/10 02:28:57;;;;;;;10.47;6.23;;;;;;;2.13;57.27;100549.44;1797442;77;21577;-56
2021/04/10 02:31:31;;;;;;;9.73;5.87;;;;;;;2.13;57.19;100549.44;1792462;77;21657;-56
2021/04/10 02:34:15;;;;;;;8.63;5.20;;;;;;;2.13;57.14;100546.34;1793582;77;21147;-55
2021/04/10 02:36:43;;;;;;;6.13;4.57;;;;;;;2.14;57.09;100548.13;1793347;77;21653;-56
2021/04/10 02:39:11;;;;;;;9.80;5.27;;;;;;;2.14;56.99;100542.80;1789592;77;21099;-55
2021/04/10 02:41:39;;;;;;;7.90;5.00;;;;;;;2.15;56.95;100549.89;1801473;77;21427;-55
2021/04/10 02:44:09;;;;;;;12.57;5.30;;;;;;;2.17;56.77;100548.56;1745877;77;21123;-56
2021/04/10 02:46:41;;;;;;;7.80;5.40;;;;;;;2.17;56.72;100540.16;1791507;77;21127;-55
2021/04/10 02:49:16;;;;;;;6.97;5.30;;;;;;;2.20;56.63;100546.80;1790334;77;21645;-54
2021/04/10 02:51:51;;;;;;;8.53;5.17;;;;;;;2.21;56.57;100539.25;1778555;77;21114;-55
2021/04/10 02:54:21;;;;;;;7.00;4.93;;;;;;;2.24;56.52;100539.25;1786287;77;21535;-54
2021/04/10 02:57:08;;;;;;;9.33;5.40;;;;;;;2.26;56.46;100543.24;1794572;77;21111;-54
2021/04/10 02:59:38;;;;;;;9.40;6.17;;;;;;;2.28;56.35;100544.12;1810455;77;21406;-55
2021/04/10 03:02:07;;;;;;;10.83;6.63;;;;;;;2.29;56.35;100552.55;1694067;80;21189;-54
2021/04/10 03:04:35;;;;;;;9.70;6.20;;;;;;;2.30;56.25;100555.61;1738301;79;21786;-55
2021/04/10 03:07:08;;;;;;;10.50;6.07;;;;;;;2.31;56.27;100552.52;1742655;79;21502;-56
2021/04/10 03:09:42;;;;;;;9.83;6.15;;;;;;;2.32;56.40;100547.64;1796393;77;21182;-55
2021/04/10 03:12:12;;;;;;;9.70;6.45;;;;;;;2.32;56.40;100547.64;1795762;77;20991;-56
2021/04/10 03:14:40;;;;;;;10.00;6.33;;;;;;;2.32;56.36;100556.50;1797268;77;21095;-56
2021/04/10 03:17:15;;;;;;;12.57;6.23;;;;;;;2.31;56.38;100560.05;1773144;77;21091;-55
2021/04/10 03:19:44;;;;;;;11.07;6.27;;;;;;;2.31;56.37;100561.37;1792090;77;21345;-54
2021/04/10 03:22:14;;;;;;;11.20;5.43;;;;;;;2.31;56.39;100570.67;1795567;77;20979;-56
2021/04/10 03:24:43;;;;;;;9.03;6.20;;;;;;;2.32;56.37;100563.59;1795953;77;21234;-55
2021/04/10 03:27:11;;;;;;;10.20;5.27;;;;;;;2.32;56.41;100568.90;1797447;77;21139;-56
2021/04/10 03:29:39;;;;;;;9.23;5.83;;;;;;;2.33;56.44;100567.57;1793110;77;21669;-55
2021/04/10 03:32:07;;;;;;;10.37;6.50;;;;;;;2.33;56.43;100568.02;1794911;77;21497;-55
2021/04/10 03:34:36;;;;;;;12.30;6.60;;;;;;;2.34;56.45;100573.77;1769875;77;21198;-56
2021/04/10 03:37:05;;;;;;;7.50;4.70;;;;;;;2.33;56.36;100570.23;1794811;77;21830;-56
2021/04/10 03:39:34;;;;;;;11.87;5.87;;;;;;;2.34;56.37;100566.69;1767761;78;22325;-55
2021/04/10 03:42:07;;;;;;;9.50;5.97;;;;;;;2.36;56.35;100572.89;1792077;77;21182;-55
2021/04/10 03:44:34;;;;;;;7.60;4.80;;;;;;;2.37;56.33;100572.01;1792858;77;21405;-54
2021/04/10 03:47:05;;;;;;;6.27;4.77;;;;;;;2.40;56.25;100570.66;1791876;77;21711;-55
2021/04/10 03:49:33;;;;;;;11.83;5.27;;;;;;;2.43;56.24;100565.34;1791919;77;21194;-55
2021/04/10 03:52:01;;;;;;;7.97;4.97;;;;;;;2.48;56.13;100565.31;1789034;77;21202;-55
2021/04/10 03:54:29;;;;;;;7.17;4.83;;;;;;;2.53;56.12;100563.55;1794187;77;21107;-55
2021/04/10 03:56:57;;;;;;;10.10;4.67;;;;;;;2.60;56.03;100570.61;1741599;78;22285;-56
2021/04/10 03:59:27;;;;;;;10.53;6.17;;;;;;;2.72;55.94;100565.71;1729581;79;21202;-56
2021/04/10 04:01:57;;;;;;;11.93;4.83;;;;;;;2.86;55.77;100562.09;1795106;77;21214;-55
2021/04/10 04:04:26;;;;;;;9.37;4.63;;;;;;;3.06;55.58;100564.67;1790966;77;21197;-56
2021/04/10 04:06:54;;;;;;;9.33;5.07;;;;;;;3.26;55.20;100565.87;1790906;77;21594;-55
2021/04/10 04:09:23;;;;;;;8.20;4.47;;;;;;;3.47;54.91;100568.42;1789606;77;23532;-55
2021/04/10 04:11:52;;;;;;;9.60;5.33;;;;;;;3.71;54.57;100566.03;1789132;77;21170;-55
2021/04/10 04:14:20;;;;;;;8.37;4.27;;;;;;;3.95;54.02;100559.61;1790166;77;21163;-56
2021/04/10 04:16:48;;;;;;;5.63;3.37;;;;;;;4.13;53.35;100558.12;1791526;77;21155;-55
2021/04/10 04:19:15;;;;;;;5.63;3.73;;;;;;;4.33;52.86;100561.94;1792334;77;21115;-55
2021/04/10 04:21:45;;;;;;;9.23;4.70;;;;;;;4.49;52.51;100560.88;1788811;77;22315;-56
2021/04/10 04:24:12;;;;;;;6.80;3.87;;;;;;;4.65;52.06;100562.91;1795895;77;21147;-55
2021/04/10 04:26:39;;;;;;;11.67;4.20;;;;;;;4.81;51.61;100564.50;1793610;77;21194;-56
2021/04/10 04:29:06;;;;;;;6.37;4.20;;;;;;;4.95;51.21;100558.53;1712332;82;21537;-57
2021/04/10 04:31:34;;;;;;;6.73;4.17;;;;;;;5.12;50.96;100562.31;1736855;81;21218;-57
2021/04/10 04:34:01;;;;;;;6.70;3.67;;;;;;;5.27;50.59;100561.64;1746277;79;21719;-56
2021/04/10 04:36:29;;;;;;;19.23;5.03;;;;;;;5.45;50.21;100559.17;1798348;77;21146;-56
2021/04/10 04:38:57;;;;;;;7.63;3.80;;;;;;;5.63;50.02;100554.89;1798259;77;21156;-56
2021/04/10 04:41:24;;;;;;;12.13;5.80;;;;;;;5.85;49.50;100554.11;1805398;77;21190;-56
2021/04/10 04:43:51;;;;;;;9.43;4.37;;;;;;;6.08;49.15;100555.97;1794873;77;21173;-57
2021/04/10 04:46:19;;;;;;;11.00;4.13;;;;;;;6.33;48.69;100560.88;1789372;77;21387;-56
2021/04/10 04:48:48;;;;;;;7.70;5.67;;;;;;;6.47;48.26;100556.15;1790984;77;21170;-56
2021/04/10 04:51:19;;;;;;;5.70;4.53;;;;;;;6.58;47.92;100555.95;1787139;77;21162;-55
2021/04/10 04:53:47;;;;;;;6.53;4.23;;;;;;;6.61;47.57;100561.25;1796359;77;21153;-55
2021/04/10 04:56:15;;;;;;;5.80;4.60;;;;;;;6.55;47.52;100562.72;1793076;77;21711;-55
2021/04/10 04:58:42;;;;;;;8.53;5.17;;;;;;;6.44;47.68;100555.77;1804542;77;21523;-55
2021/04/10 05:01:09;;;;;;;6.07;4.37;;;;;;;6.34;47.67;100562.65;1745567;80;21514;-55
2021/04/10 05:03:36;;;;;;;9.83;5.90;;;;;;;6.25;47.89;100559.69;1745053;79;21197;-54
2021/04/10 05:06:04;;;;;;;10.57;5.37;;;;;;;6.18;48.18;100554.03;1791456;77;21166;-54
2021/04/10 05:08:31;;;;;;;5.80;4.30;;;;;;;6.15;48.09;100558.08;1791221;77;21459;-55
2021/04/10 05:10:59;;;;;;;5.93;4.20;;;;;;;6.12;48.10;100559.94;1781780;77;21462;-53
2021/04/10 05:13:26;;;;;;;6.27;4.83;;;;;;;6.10;48.26;100555.06;1778489;78;21174;-55
2021/04/10 05:15:56;;;;;;;5.10;3.83;;;;;;;6.08;48.42;100555.97;1775121;78;21205;-55
2021/04/10 05:18:24;;;;;;;7.60;4.93;;;;;;;6.10;48.58;100549.72;1771442;78;21224;-54
2021/04/10 05:20:51;;;;;;;4.93;4.43;;;;;;;6.13;48.49;100545.19;1772513;78;21150;-53
2021/04/10 05:23:25;;;;;;;8.47;5.47;;;;;;;6.17;48.50;100552.71;1782392;78;21792;-56
2021/04/10 05:25:52;;;;;;;9.23;4.93;;;;;;;6.20;48.34;100555.34;1777472;78;21156;-53
2021/04/10 05:28:21;;;;;;;7.40;4.27;;;;;;;6.24;48.23;100555.24;1771257;78;21489;-55
2021/04/10 05:30:48;;;;;;;8.07;4.20;;;;;;;6.29;48.22;100557.40;1777267;78;21166;-55
2021/04/10 05:33:15;;;;;;;4.67;3.73;;;;;;;6.34;48.01;100553.29;1764538;78;21169;-53
2021/04/10 05:35:43;;;;;;;7.30;4.27;;;;;;;6.37;48.16;100553.24;1766758;78;21386;-53
2021/04/10 05:38:10;;;;;;;6.07;4.50;;;;;;;6.42;48.15;100556.25;1763316;78;21186;-53
2021/04/10 05:40:37;;;;;;;6.47;4.07;;;;;;;6.51;48.05;100563.67;1762089;78;21165;-57
2021/04/10 05:43:04;;;;;;;5.27;4.10;;;;;;;6.57;48.14;100562.21;1763424;78;21193;-54
2021/04/10 05:45:31;;;;;;;6.03;3.63;;;;;;;6.63;48.27;100555.43;1765653;78;21198;-57
2021/04/10 05:48:00;;;;;;;8.10;4.33;;;;;;;6.70;48.43;100560.62;1767616;78;22549;-55
2021/04/10 05:50:27;;;;;;;5.47;3.67;;;;;;;6.77;48.29;100560.92;1762945;78;21170;-55
2021/04/10 05:52:55;;;;;;;5.43;3.83;;;;;;;6.83;47.74;100555.89;1766052;78;21107;-58
2021/04/10 05:55:22;;;;;;;9.17;4.13;;;;;;;6.92;47.46;100554.37;1767951;78;21453;-54
2021/04/10 05:57:49;;;;;;;3.77;3.00;;;;;;;6.98;47.44;100551.55;1768012;78;21115;-58
2021/04/10 06:00:17;;;;;;;3.67;2.90;;;;;;;7.07;47.83;100554.49;1769912;78;21357;-54
2021/04/10 06:02:53;;;;;;;5.47;3.70;;;;;;;7.18;47.42;100555.16;1770664;78;21114;-55
2021/04/10 06:05:22;;;;;;;11.78;4.12;;;;;;;7.27;47.13;100560.31;1765645;78;21412;-55
2021/04/10 06:07:49;;;;;;;3.73;2.77;;;;;;;7.36;47.28;100561.45;1767137;78;21543;-53
2021/04/10 06:10:18;;;;;;;8.40;3.07;;;;;;;7.45;47.10;100561.25;1774092;78;21193;-57
2021/04/10 06:12:46;;;;;;;6.17;3.90;;;;;;;7.53;46.64;100563.29;1798066;77;22364;-58
2021/04/10 06:15:17;;;;;;;4.17;2.30;;;;;;;7.62;46.42;100558.18;1734951;80;21152;-55
2021/04/10 06:17:46;;;;;;;5.13;3.27;;;;;;;7.69;46.47;100558.45;1736382;80;21554;-57
2021/04/10 06:20:16;;;;;;;4.07;2.70;;;;;;;7.79;46.15;100561.80;1739964;79;21850;-54
2021/04/10 06:22:44;;;;;;;5.03;3.23;;;;;;;7.87;45.72;100562.48;1733421;79;22203;-57
2021/04/10 06:25:13;;;;;;;6.33;3.27;;;;;;;7.95;45.77;100560.50;1735209;79;21452;-55
2021/04/10 06:27:41;;;;;;;4.23;2.90;;;;;;;8.00;45.32;100561.25;1791741;77;21447;-55
2021/04/10 06:30:09;;;;;;;4.17;2.70;;;;;;;8.06;45.77;100564.27;1791051;77;21171;-53
2021/04/10 06:32:37;;;;;;;3.50;2.63;;;;;;;8.13;45.79;100559.16;1793403;77;22882;-55
2021/04/10 06:35:07;;;;;;;4.10;3.30;;;;;;;8.20;45.52;100562.10;1787513;77;21499;-58
2021/04/10 06:37:37;;;;;;;4.53;2.93;;;;;;;8.28;45.30;100558.30;1794095;77;21191;-55
2021/04/10 06:40:06;;;;;;;4.73;3.17;;;;;;;8.34;45.24;100554.14;1787767;77;21440;-57
2021/04/10 06:42:33;;;;;;;5.03;2.57;;;;;;;8.43;45.21;100556.16;1787813;77;21182;-56
2021/04/10 06:45:01;;;;;;;4.63;2.83;;;;;;;8.53;45.09;100557.67;1787265;77;21095;-55
2021/04/10 06:47:29;;;;;;;5.90;3.13;;;;;;;8.61;44.80;100554.32;1790162;77;21107;-57
2021/04/10 06:49:57;;;;;;;5.77;3.53;;;;;;;8.68;44.77;100556.79;1788469;77;21709;-55
2021/04/10 06:52:24;;;;;;;4.70;2.70;;;;;;;8.76;44.58;100557.06;1731451;80;21469;-54
2021/04/10 06:55:06;;;;;;;4.43;2.40;;;;;;;8.83;44.26;100551.48;1753464;79;21150;-56
2021/04/10 06:57:54;;;;;;;4.33;3.13;;;;;;;8.91;44.88;100558.84;1728379;80;21237;-53
2021/04/10 07:00:22;;;;;;;3.77;2.57;;;;;;;9.01;44.11;100554.09;1755355;79;21147;-54
2021/04/10 07:02:50;;;;;;;2.67;2.47;;;;;;;9.08;43.58;100561.05;1737377;79;22368;-53
2021/04/10 07:05:20;;;;;;;4.20;2.87;;;;;;;9.14;43.39;100554.59;1788583;77;21198;-57
2021/04/10 07:07:48;;;;;;;3.17;2.60;;;;;;;9.20;43.81;100558.44;1771416;77;21099;-58
2021/04/10 07:10:15;;;;;;;3.23;2.13;;;;;;;9.29;43.50;100549.64;1788897;77;21405;-57
2021/04/10 07:12:43;;;;;;;2.40;1.93;;;;;;;9.38;42.83;100551.17;1791844;77;21162;-54
2021/04/10 07:15:15;;;;;;;3.00;2.57;;;;;;;9.44;42.86;100559.06;1791469;77;21270;-57
2021/04/10 07:17:50;;;;;;;3.37;1.93;;;;;;;9.51;43.38;100557.95;1786748;77;21693;-54
2021/04/10 07:20:28;;;;;;;3.33;2.22;;;;;;;9.60;43.16;100550.94;1790504;77;26491;-56
2021/04/10 07:23:03;;;;;;;3.70;2.63;;;;;;;9.69;43.19;100545.73;1790987;77;21127;-56
2021/04/10 07:25:33;;;;;;;8.87;2.57;;;;;;;9.76;42.45;100557.58;1790493;77;21541;-59
2021/04/10 07:28:23;;;;;;;6.10;3.60;;;;;;;9.85;42.63;100547.88;1786871;77;21339;-56
2021/04/10 07:30:58;;;;;;;5.77;4.10;;;;;;;9.94;42.16;100553.88;1791270;77;21622;-53
2021/04/10 07:33:32;;;;;;;5.15;3.47;;;;;;;10.04;42.47;100556.66;1794419;77;21463;-57
2021/04/10 07:36:01;;;;;;;3.60;2.97;;;;;;;10.12;41.95;100561.34;1738063;80;21949;-55
2021/04/10 07:38:37;;;;;;;6.93;3.80;;;;;;;10.18;41.29;100544.55;1737140;79;22120;-55
2021/04/10 07:41:16;;;;;;;5.67;3.13;;;;;;;10.23;41.38;100556.48;1733726;79;21396;-59
2021/04/10 07:43:44;;;;;;;7.13;3.90;;;;;;;10.27;41.28;100552.78;1787076;77;21469;-55
2021/04/10 07:46:23;;;;;;;6.57;3.30;;;;;;;10.33;40.47;100552.56;1792549;77;21087;-54
2021/04/10 07:49:11;;;;;;;2.20;2.00;;;;;;;10.37;40.66;100552.00;1787544;77;21106;-57
2021/04/10 07:51:56;;;;;;;2.27;2.07;;;;;;;10.42;39.73;100546.86;1797497;77;21153;-56
2021/04/10 07:54:32;;;;;;;6.23;2.57;;;;;;;10.45;39.29;100548.58;1788671;77;22062;-56
2021/04/10 07:57:09;;;;;;;6.73;1.93;;;;;;;10.53;39.26;100544.68;1821021;76;22667;-57
2021/04/10 07:59:53;;;;;;;3.00;2.33;;;;;;;10.55;39.10;100551.33;1803802;77;20989;-56
2021/04/10 08:02:21;;;;;;;3.13;1.70;;;;;;;10.57;38.47;100546.78;1797085;77;22550;-55
2021/04/10 08:04:57;;;;;;;2.73;2.43;;;;;;;10.61;38.61;100543.05;1802134;77;21084;-57
2021/04/10 08:07:27;;;;;;;2.65;1.98;;;;;;;10.65;39.26;100544.69;1805818;77;21016;-56
2021/04/10 08:10:01;;;;;;;5.00;2.53;;;;;;;10.74;39.37;100544.82;1798465;77;22225;-56
2021/04/10 08:12:31;;;;;;;2.00;1.73;;;;;;;10.83;38.88;100551.22;1794228;77;21693;-56
2021/04/10 08:15:01;;;;;;;4.90;2.20;;;;;;;10.88;38.12;100546.10;1791637;77;21230;-59
2021/04/10 08:17:36;;;;;;;3.67;2.43;;;;;;;10.91;38.42;100539.70;1790416;77;21198;-56
2021/04/10 08:20:27;;;;;;;3.33;2.40;;;;;;;10.95;37.69;100544.05;1792464;77;21147;-57
2021/04/10 08:23:21;;;;;;;2.77;1.57;;;;;;;11.00;37.78;100543.39;1793004;77;21107;-57
2021/04/10 08:25:49;;;;;;;3.50;1.43;;;;;;;11.06;37.47;100535.58;1790324;77;21198;-59
2021/04/10 08:28:17;;;;;;;3.10;1.70;;;;;;;11.09;37.26;100536.31;1792775;77;23387;-56
2021/04/10 08:30:46;;;;;;;4.95;1.60;;;;;;;11.13;37.38;100540.67;1794670;77;21616;-57
2021/04/10 08:33:13;;;;;;;3.08;1.37;;;;;;;11.19;36.52;100536.38;1789664;77;21171;-58
2021/04/10 08:35:41;;;;;;;2.72;1.37;;;;;;;11.24;36.68;100537.08;1792160;77;21217;-56
2021/04/10 08:38:08;;;;;;;2.37;1.45;;;;;;;11.29;36.41;100533.75;1788602;77;21518;-56
2021/04/10 08:40:35;;;;;;;3.83;1.50;;;;;;;11.34;36.32;100538.48;1790768;77;22032;-55
2021/04/10 08:43:04;;;;;;;5.60;1.60;;;;;;;11.39;35.86;100527.53;1773951;77;21188;-55
2021/04/10 08:45:34;;;;;;;2.20;1.80;;;;;;;11.44;36.08;100526.88;1768500;78;21882;-56
2021/04/10 08:48:04;;;;;;;6.22;1.60;;;;;;;11.51;36.00;100533.77;1771672;78;21094;-56
2021/04/10 08:50:36;;;;;;;3.40;1.70;;;;;;;11.55;36.16;100526.45;1771521;78;21079;-56
2021/04/10 08:53:06;;;;;;;2.40;1.32;;;;;;;11.61;35.44;100526.20;1772366;78;21198;-56
2021/04/10 08:55:34;;;;;;;2.37;1.27;;;;;;;11.64;35.25;100528.78;1774477;78;21099;-59
2021/04/10 08:58:21;;;;;;;2.70;1.30;;;;;;;11.68;35.69;100525.01;1772434;78;21000;-60
2021/04/10 09:00:59;;;;;;;2.55;1.62;;;;;;;11.69;35.01;100523.60;1771866;78;21166;-58
2021/04/10 09:03:50;;;;;;;1.80;1.30;;;;;;;11.73;35.42;100523.02;1778936;78;21123;-56
2021/04/10 09:06:33;;;;;;;4.03;2.00;;;;;;;11.77;35.57;100526.02;1775137;78;21550;-56
2021/04/10 09:09:22;;;;;;;5.58;1.50;;;;;;;11.82;35.07;100521.80;1774151;78;21565;-54
2021/04/10 09:12:07;;;;;;;3.00;1.30;;;;;;;11.84;35.28;100522.13;1777397;78;21162;-51
2021/04/10 09:14:44;;;;;;;2.27;1.20;;;;;;;11.89;34.21;100521.48;1694580;78;21461;-54
2021/04/10 09:17:14;;;;;;;2.30;1.42;;;;;;;11.90;34.05;100515.62;1773638;78;21416;-55
2021/04/10 09:19:41;;;;;;;2.52;1.30;;;;;;;11.91;34.61;100514.17;1769689;78;21877;-53
2021/04/10 09:22:16;;;;;;;2.17;1.20;;;;;;;11.94;34.12;100511.83;1772019;78;21147;-54
2021/04/10 09:24:45;;;;;;;2.50;1.50;;;;;;;11.96;34.28;100512.19;1774351;78;21463;-54
2021/04/10 09:27:25;;;;;;;2.30;1.30;;;;;;;12.01;34.92;100502.53;1772630;78;21103;-55
2021/04/10 09:30:01;;;;;;;2.75;1.52;;;;;;;12.08;34.42;100507.60;1771863;78;21194;-56
2021/04/10 09:32:44;;;;;;;1.87;1.17;;;;;;;12.15;34.25;100506.89;1771505;78;21363;-59
2021/04/10 09:35:19;;;;;;;1.33;1.10;;;;;;;12.19;33.33;100507.16;1772232;78;21124;-58
2021/04/10 09:37:52;;;;;;;4.17;1.57;;;;;;;12.19;33.99;100499.52;1745290;78;21265;-57
2021/04/10 09:40:47;;;;;;;1.70;0.90;;;;;;;12.20;33.81;100500.81;1772067;78;21497;-56
2021/04/10 09:43:15;;;;;;;3.40;1.05;;;;;;;12.23;34.08;100497.12;1773834;78;21169;-56
2021/04/10 09:45:44;;;;;;;1.92;1.17;;;;;;;12.26;33.05;100495.14;1774348;78;21851;-57
2021/04/10 09:48:12;;;;;;;3.35;1.25;;;;;;;12.29;33.04;100496.84;1768136;78;21190;-59
2021/04/10 09:50:54;;;;;;;13.32;1.80;;;;;;;12.30;33.20;100502.17;1770895;78;21273;-59
2021/04/10 09:53:23;;;;;;;1.60;1.10;;;;;;;12.32;33.32;100492.20;1769787;78;21715;-56
2021/04/10 09:56:02;;;;;;;1.87;0.88;;;;;;;12.34;32.93;100497.50;1771991;78;21143;-57
2021/04/10 09:58:39;;;;;;;2.62;1.20;;;;;;;12.35;33.31;100490.70;1770401;78;22581;-58
2021/04/10 10:01:20;;;;;;;1.50;1.07;;;;;;;12.39;33.46;100489.62;1770974;78;21542;-58
2021/04/10 10:03:49;;;;;;;1.72;1.20;;;;;;;12.45;33.25;100487.13;1770834;78;21512;-59
2021/04/10 10:06:34;;;;;;;1.65;0.82;;;;;;;12.49;33.29;100482.89;1767606;78;21765;-54
2021/04/10 10:09:20;;;;;;;1.32;0.98;;;;;;;12.53;33.63;100480.03;1765828;78;21095;-59
2021/04/10 10:11:52;;;;;;;2.80;1.25;;;;;;;12.57;33.58;100479.84;1771721;78;22491;-56
2021/04/10 10:14:20;;;;;;;1.98;1.10;;;;;;;12.60;32.36;100480.15;1770915;79;21713;-59
2021/04/10 10:16:48;;;;;;;1.60;1.10;;;;;;;12.61;32.64;100479.20;1771101;78;21178;-57
2021/04/10 10:19:18;;;;;;;1.40;1.00;;;;;;;12.63;32.56;100470.57;1770127;78;21175;-59
2021/04/10 10:21:47;;;;;;;4.25;1.45;;;;;;;12.64;32.85;100477.73;1769904;78;21213;-58
2021/04/10 10:24:22;;;;;;;4.17;2.00;;;;;;;12.63;33.35;100477.32;1769582;79;21526;-57
2021/04/10 10:26:49;;;;;;;3.70;1.90;;;;;;;12.64;33.21;100472.33;1773743;78;21550;-56
2021/04/10 10:29:16;;;;;;;2.22;1.52;;;;;;;12.62;32.85;100463.41;1768845;78;21178;-58
2021/04/10 10:31:47;;;;;;;2.75;1.75;;;;;;;12.62;33.03;100462.06;1770113;78;21155;-54
2021/04/10 10:34:17;;;;;;;8.88;2.30;;;;;;;12.61;32.49;100457.13;1769475;78;21812;-55
2021/04/10 10:36:46;;;;;;;4.75;1.80;;;;;;;12.61;32.88;100465.70;1772238;78;21494;-56
2021/04/10 10:39:29;;;;;;;1.92;1.30;;;;;;;12.63;32.39;100461.13;1767485;78;21519;-59
2021/04/10 10:41:58;;;;;;;2.72;1.40;;;;;;;12.65;31.91;100460.58;1768249;78;21128;-55
2021/04/10 10:44:26;;;;;;;3.52;2.27;;;;;;;12.66;31.99;100449.72;1769116;78;22362;-58
2021/04/10 10:47:05;;;;;;;3.30;1.92;;;;;;;12.66;32.83;100444.78;1766589;78;21661;-57
2021/04/10 10:49:33;;;;;;;4.30;1.72;;;;;;;12.69;32.43;100448.67;1769209;78;21209;-59
2021/04/10 10:52:00;;;;;;;4.17;1.95;;;;;;;12.71;32.56;100454.89;1767937;79;21776;-57
2021/04/10 10:54:37;;;;;;;3.90;1.65;;;;;;;12.74;32.76;100441.26;1765973;78;21194;-56
2021/04/10 10:57:11;;;;;;;4.03;2.30;;;;;;;12.78;32.18;100441.50;1780372;78;21102;-55
2021/04/10 10:59:40;;;;;;;1.95;1.20;;;;;;;12.79;32.62;100435.16;1779756;78;21162;-57
2021/04/10 11:02:11;;;;;;;2.02;1.62;;;;;;;12.83;32.68;100442.19;1783862;78;21827;-55
2021/04/10 11:04:39;;;;;;;4.03;1.10;;;;;;;12.88;32.04;100434.73;1787595;78;21464;-57
2021/04/10 11:07:07;;;;;;;5.30;1.30;;;;;;;12.92;31.49;100426.89;1782650;78;21174;-57
2021/04/10 11:09:38;;;;;;;1.57;1.27;;;;;;;12.96;31.29;100424.44;1782826;78;21735;-54
2021/04/10 11:12:12;;;;;;;2.87;2.42;;;;;;;12.99;31.65;100415.31;1786794;78;21551;-59
2021/04/10 11:14:45;;;;;;;3.05;2.75;;;;;;;12.98;31.57;100417.14;1789632;78;21588;-58
2021/04/10 11:17:13;;;;;;;3.98;1.80;;;;;;;12.94;31.98;100419.56;1787308;78;21182;-60
2021/04/10 11:22:24;;;;;;;3.43;1.83;;;;;;;12.95;32.64;100405.11;1861502;74;22589;-56
2021/04/10 11:24:51;;;;;;;3.62;1.50;;;;;;;12.94;31.99;100417.34;1840929;75;21419;-57
2021/04/10 11:27:22;;;;;;;2.22;1.42;;;;;;;12.95;31.43;100415.92;1836962;75;21364;-57
2021/04/10 11:30:03;;;;;;;2.27;1.40;;;;;;;12.96;31.05;100411.39;1838588;75;21511;-57
2021/04/10 11:32:43;;;;;;;9.88;1.35;;;;;;;12.96;31.05;100408.69;1777135;78;21204;-59
2021/04/10 11:35:22;;;;;;;2.35;0.93;;;;;;;12.97;31.19;100407.27;1801327;77;20982;-57
2021/04/10 11:37:58;;;;;;;1.35;1.00;;;;;;;13.00;30.93;100407.14;1799288;77;21483;-57
2021/04/10 11:40:34;;;;;;;1.80;1.05;;;;;;;13.04;30.33;100401.97;1796921;77;21779;-58
2021/04/10 11:43:06;;;;;;;3.33;1.37;;;;;;;13.02;30.15;100398.45;1782509;78;21677;-58
2021/04/10 11:45:40;;;;;;;2.45;1.10;;;;;;;12.98;30.49;100396.87;1781113;78;21408;-59
2021/04/10 11:50:13;;;;;;;2.67;1.20;;;;;;;13.03;31.18;100388.05;1790075;77;23156;-58
2021/04/10 11:52:41;;;;;;;9.23;1.67;;;;;;;13.02;31.18;100392.17;1764643;78;21371;-56